Time;durP1;ratioP1;P1;durP2;ratioP2;P2;SDS_P1;SDS_P2;PMS_P1;PMS_P2;Temp;Humidity;BMP_temperature;BMP_pressure;BME280_temperature;BME280_humidity;BME280_pressure;Samples;Min_cycle;Max_cycle;Signal;HPM_P1;HPM_P2
2023/02/01 00:01:10;;;;;;;21.53;2.83;;;;;;;12.36;91.23;101819.94;5057042;28;20037;-52
2023/02/01 00:03:36;;;;;;;26.70;4.80;;;;;;;12.14;92.31;101810.94;5058336;28;20029;-51
2023/02/01 00:06:01;;;;;;;19.58;3.72;;;;;;;12.60;89.93;101802.75;5056286;28;20037;-52
2023/02/01 00:08:27;;;;;;;18.23;3.33;;;;;;;12.58;90.57;101787.84;5054208;28;20029;-55
2023/02/01 00:11:19;;;;;;;19.95;3.63;;;;;;;12.78;91.11;101798.81;5055476;28;20033;-52
2023/02/01 00:13:44;;;;;;;16.15;2.70;;;;;;;12.90;91.56;101805.41;5052853;28;20119;-51
2023/02/01 00:16:14;;;;;;;25.90;4.87;;;;;;;12.23;94.05;101811.69;5060001;28;20045;-54
2023/02/01 00:18:39;;;;;;;33.42;4.82;;;;;;;12.44;94.48;101811.78;5057618;28;20029;-52
2023/02/01 00:21:04;;;;;;;24.43;3.90;;;;;;;12.69;93.58;101805.31;5059432;28;20044;-49
2023/02/01 00:23:34;;;;;;;25.53;4.60;;;;;;;12.84;93.23;101816.03;5056885;28;20037;-50
2023/02/01 00:26:02;;;;;;;31.55;4.63;;;;;;;12.79;93.96;101826.53;5060973;28;20039;-52
2023/02/01 00:28:28;;;;;;;15.18;2.92;;;;;;;13.13;91.41;101825.91;5061514;28;20032;-51
2023/02/01 00:30:58;;;;;;;20.67;3.63;;;;;;;12.96;93.37;101816.41;5058363;28;20067;-50
2023/02/01 00:33:24;;;;;;;22.50;3.55;;;;;;;12.83;95.12;101809.00;5055238;28;20056;-48
2023/02/01 00:35:50;;;;;;;29.63;5.72;;;;;;;13.44;92.77;101806.03;5057485;28;20041;-50
2023/02/01 00:38:16;;;;;;;23.13;4.85;;;;;;;12.32;97.26;101800.66;5057495;28;20040;-53
2023/02/01 00:40:42;;;;;;;28.15;5.45;;;;;;;12.73;96.67;101804.78;5058669;28;20053;-48
2023/02/01 00:43:08;;;;;;;43.00;4.77;;;;;;;12.54;98.65;101810.69;5056858;28;20041;-52
2023/02/01 00:45:33;;;;;;;18.00;5.27;;;;;;;12.53;98.33;101817.06;5061499;28;20109;-48
2023/02/01 00:47:58;;;;;;;25.15;3.47;;;;;;;12.81;98.95;101809.22;5060321;28;20056;-51
2023/02/01 00:50:24;;;;;;;21.70;4.20;;;;;;;12.51;99.34;101803.84;5059843;28;20053;-51
2023/02/01 00:52:50;;;;;;;24.50;4.05;;;;;;;12.60;99.01;101793.84;5062365;28;20068;-52
2023/02/01 00:55:16;;;;;;;24.67;4.00;;;;;;;12.81;98.78;101805.69;5057345;28;20037;-52
2023/02/01 00:57:41;;;;;;;26.97;5.13;;;;;;;12.60;98.78;101794.69;5055639;28;20065;-53
2023/02/01 01:00:08;;;;;;;14.27;3.10;;;;;;;12.35;100.00;101788.75;5056298;28;20309;-48
2023/02/01 01:02:33;;;;;;;19.30;3.53;;;;;;;12.87;98.89;101807.63;5057561;28;20057;-53
2023/02/01 01:04:59;;;;;;;22.52;3.42;;;;;;;13.02;97.71;101807.59;5058620;28;20048;-51
2023/02/01 01:07:24;;;;;;;17.17;2.90;;;;;;;12.19;100.00;101817.41;5057706;28;20033;-52
2023/02/01 01:09:50;;;;;;;24.17;3.87;;;;;;;12.82;99.18;101802.81;5056660;28;20033;-52
2023/02/01 01:12:16;;;;;;;20.42;3.75;;;;;;;12.74;99.49;101803.75;5038187;28;20266;-51
2023/02/01 01:14:41;;;;;;;20.67;3.53;;;;;;;12.90;97.49;101797.34;5059280;28;20124;-52
2023/02/01 01:17:07;;;;;;;21.17;3.70;;;;;;;12.65;99.45;101786.06;5060272;28;20037;-51
2023/02/01 01:19:32;;;;;;;15.63;3.23;;;;;;;13.01;96.25;101801.41;5061482;28;20062;-51
2023/02/01 01:21:58;;;;;;;22.15;3.63;;;;;;;12.41;99.45;101796.06;5057386;28;20056;-49
2023/02/01 01:24:23;;;;;;;28.53;4.17;;;;;;;12.60;99.02;101791.16;5054949;28;20037;-50
2023/02/01 01:26:49;;;;;;;28.40;5.50;;;;;;;12.33;99.58;101793.47;5056795;28;20295;-54
2023/02/01 01:29:14;;;;;;;19.80;3.55;;;;;;;12.96;96.58;101790.41;5054940;28;20064;-54
2023/02/01 01:31:40;;;;;;;21.93;3.60;;;;;;;12.74;97.06;101797.53;5055999;28;20033;-53
2023/02/01 01:34:05;;;;;;;23.50;4.23;;;;;;;12.55;98.45;101786.34;5051942;28;20021;-50
2023/02/01 01:36:31;;;;;;;19.67;4.67;;;;;;;12.89;97.04;101789.47;5054042;28;20271;-56
2023/02/01 01:38:57;;;;;;;35.65;4.22;;;;;;;12.87;95.58;101788.81;5059774;28;20037;-54
2023/02/01 01:41:25;;;;;;;43.60;5.32;;;;;;;13.11;94.90;101793.06;5058005;28;20101;-56
2023/02/01 01:43:56;;;;;;;22.63;3.30;;;;;;;12.85;95.73;101785.50;5057101;28;20044;-53
2023/02/01 01:46:30;;;;;;;28.33;4.28;;;;;;;13.01;95.65;101787.97;5053294;28;20057;-53
2023/02/01 01:49:04;;;;;;;28.00;6.13;;;;;;;12.77;95.29;101799.84;5051439;28;20040;-52
2023/02/01 01:51:35;;;;;;;26.08;4.50;;;;;;;13.02;95.04;101800.38;5055570;28;20033;-54
2023/02/01 01:54:10;;;;;;;25.67;4.38;;;;;;;13.04;94.49;101801.03;5057950;28;20033;-51
2023/02/01 01:56:35;;;;;;;30.35;4.65;;;;;;;12.51;96.26;101794.97;5059169;28;20040;-49
2023/02/01 01:59:03;;;;;;;31.75;4.00;;;;;;;12.69;96.21;101787.38;5057116;28;20060;-51
2023/02/01 02:01:29;;;;;;;23.77;4.97;;;;;;;12.37;98.82;101778.66;5059089;28;20060;-51
2023/02/01 02:03:55;;;;;;;18.97;3.93;;;;;;;12.38;98.04;101766.94;5061354;28;20029;-53
2023/02/01 02:06:52;;;;;;;23.45;4.40;;;;;;;12.50;98.40;101772.66;5059081;28;20029;-51
2023/02/01 02:09:18;;;;;;;16.02;3.20;;;;;;;12.43;99.55;101755.66;5059714;28;20038;-50
2023/02/01 02:11:44;;;;;;;23.08;3.90;;;;;;;12.79;96.42;101759.41;5058621;28;20030;-54
2023/02/01 02:14:13;;;;;;;27.20;3.77;;;;;;;12.63;98.02;101755.91;5062798;28;20038;-49
2023/02/01 02:16:40;;;;;;;22.20;3.90;;;;;;;12.38;98.08;101741.97;5063340;28;20040;-51
2023/02/01 02:19:36;;;;;;;22.30;3.67;;;;;;;12.47;98.98;101743.53;5059080;28;20045;-50
2023/02/01 02:22:40;;;;;;;24.15;3.88;;;;;;;12.59;96.73;101749.25;5061940;28;20044;-51
2023/02/01 02:25:24;;;;;;;16.48;3.13;;;;;;;12.04;99.50;101744.97;5057223;28;20030;-52
2023/02/01 02:28:24;;;;;;;30.15;4.22;;;;;;;12.55;98.60;101753.31;5058267;28;20052;-53
2023/02/01 02:30:52;;;;;;;21.45;3.63;;;;;;;12.60;97.60;101746.41;5059869;28;20052;-48
2023/02/01 02:33:47;;;;;;;20.25;3.72;;;;;;;13.05;96.27;101751.66;5062674;28;20041;-52
2023/02/01 02:36:20;;;;;;;24.27;3.97;;;;;;;12.98;95.77;101752.59;5062308;28;20045;-49
2023/02/01 02:38:54;;;;;;;19.80;3.75;;;;;;;13.10;95.28;101751.09;5061820;28;20037;-51
2023/02/01 02:47:25;;;;;;;20.20;4.47;;;;;;;13.25;95.15;101737.63;5059392;28;20036;-53
2023/02/01 02:54:45;;;;;;;18.88;3.35;;;;;;;12.93;96.66;101736.25;5055965;28;20057;-53
2023/02/01 02:55:35;;;;;;;22.83;4.03;;;;;;;13.03;97.51;101726.00;5059333;28;20052;-50
2023/02/01 03:06:24;;;;;;;32.63;3.67;;;;;;;13.46;95.57;101741.38;5060602;28;20036;-52
2023/02/01 03:08:53;;;;;;;;;;;;;;;13.17;98.38;101743.94;5062621;28;20101;-50
2023/02/01 03:11:20;;;;;;;25.70;4.00;;;;;;;13.02;98.61;101727.03;5057318;28;19920;-52
2023/02/01 03:13:53;;;;;;;31.10;5.65;;;;;;;13.82;95.11;101718.91;5060667;28;20037;-50
2023/02/01 03:16:36;;;;;;;36.53;6.00;;;;;;;13.04;98.17;101709.72;5057750;28;20092;-51
2023/02/01 03:19:08;;;;;;;19.08;4.55;;;;;;;13.59;96.58;101701.16;5057821;28;20041;-51
2023/02/01 03:21:39;;;;;;;21.67;4.70;;;;;;;13.16;98.24;101707.38;5054788;28;20053;-50
2023/02/01 03:24:12;;;;;;;18.08;4.72;;;;;;;13.09;98.02;101693.06;5055071;28;20037;-49
2023/02/01 03:26:43;;;;;;;26.35;4.03;;;;;;;13.37;97.43;101703.00;5059863;28;20029;-51
2023/02/01 03:29:15;;;;;;;30.38;4.80;;;;;;;13.53;96.88;101699.25;5058846;28;20034;-50
2023/02/01 03:31:42;;;;;;;37.15;5.55;;;;;;;13.38;97.51;101715.44;5056596;28;20031;-49
2023/02/01 03:34:13;;;;;;;32.10;3.92;;;;;;;13.32;98.29;101705.47;5063314;28;20120;-53
2023/02/01 03:36:48;;;;;;;26.88;4.05;;;;;;;13.43;96.70;101713.00;5057635;28;20042;-51
2023/02/01 03:39:29;;;;;;;21.23;4.25;;;;;;;13.40;96.78;101718.75;5054989;28;20038;-50
2023/02/01 03:42:22;;;;;;;27.02;4.38;;;;;;;13.45;96.93;101694.03;5060143;28;20033;-50
2023/02/01 03:44:58;;;;;;;25.48;3.85;;;;;;;13.92;93.86;101705.13;5057804;28;20064;-52
2023/02/01 03:47:28;;;;;;;32.47;5.15;;;;;;;12.69;99.85;101706.03;5057325;28;20060;-52
2023/02/01 03:50:03;;;;;;;28.35;4.90;;;;;;;13.22;97.59;101708.47;5060514;28;20043;-51
2023/02/01 03:52:36;;;;;;;18.05;4.10;;;;;;;13.62;95.86;101705.31;5061582;28;20036;-52
2023/02/01 03:55:04;;;;;;;19.15;3.55;;;;;;;13.41;95.92;101715.03;5056679;28;20037;-53
2023/02/01 03:57:35;;;;;;;31.88;4.00;;;;;;;13.15;97.73;101713.75;5060233;28;20047;-49
2023/02/01 04:00:14;;;;;;;18.73;4.45;;;;;;;13.23;97.93;101712.81;5056186;28;20037;-49
2023/02/01 04:02:40;;;;;;;28.92;4.43;;;;;;;13.03;97.19;101710.75;5058789;28;20045;-54
2023/02/01 04:05:07;;;;;;;21.88;4.00;;;;;;;13.22;96.03;101719.19;5057480;28;20037;-55
2023/02/01 04:07:32;;;;;;;21.27;4.20;;;;;;;13.11;96.74;101720.53;5062985;28;20068;-53
2023/02/01 04:09:57;;;;;;;22.07;3.93;;;;;;;13.53;94.11;101723.44;5062118;28;20045;-54
2023/02/01 04:12:23;;;;;;;29.90;4.95;;;;;;;12.85;97.27;101726.44;5059484;28;20030;-50
2023/02/01 04:14:49;;;;;;;16.90;3.27;;;;;;;13.26;95.76;101733.06;5063578;28;20037;-52
2023/02/01 04:17:14;;;;;;;31.77;3.95;;;;;;;13.58;93.35;101730.94;5054697;28;20128;-57
2023/02/01 04:19:40;;;;;;;20.80;3.90;;;;;;;13.44;92.40;101736.16;5059330;28;20057;-49
2023/02/01 04:22:06;;;;;;;25.77;4.23;;;;;;;13.71;91.43;101730.22;5058058;28;20125;-52
2023/02/01 04:24:31;;;;;;;18.83;3.60;;;;;;;13.68;92.54;101726.03;5058904;28;20259;-49
2023/02/01 04:26:57;;;;;;;30.60;4.63;;;;;;;13.91;90.22;101720.44;5056736;28;20033;-50
2023/02/01 04:29:22;;;;;;;26.80;3.80;;;;;;;13.15;94.25;101721.81;5058441;28;20046;-50
2023/02/01 04:31:49;;;;;;;23.20;3.65;;;;;;;14.03;90.01;101707.28;5062440;28;20078;-51
2023/02/01 04:34:14;;;;;;;20.48;3.72;;;;;;;14.52;87.83;101717.25;5059184;28;20043;-55
2023/02/01 04:36:40;;;;;;;23.83;5.20;;;;;;;14.11;89.34;101724.28;5059425;28;20061;-55
2023/02/01 04:39:05;;;;;;;14.47;3.13;;;;;;;13.94;89.91;101718.38;5056547;28;20113;-54
2023/02/01 04:41:31;;;;;;;28.42;4.47;;;;;;;13.60;91.10;101705.50;5054375;28;20052;-52
2023/02/01 04:43:56;;;;;;;22.60;3.83;;;;;;;13.36;91.26;101713.94;5054712;28;20064;-51
2023/02/01 04:46:22;;;;;;;23.30;4.03;;;;;;;13.54;91.70;101716.22;5059780;28;20039;-51
2023/02/01 04:48:47;;;;;;;28.80;4.43;;;;;;;13.72;90.94;101713.06;5058969;28;20032;-50
2023/02/01 04:51:14;;;;;;;31.80;5.40;;;;;;;13.66;91.00;101706.59;5056496;28;20033;-50
2023/02/01 04:53:41;;;;;;;23.63;3.83;;;;;;;13.92;90.86;101721.25;5056089;28;20266;-50
2023/02/01 04:56:07;;;;;;;35.38;5.35;;;;;;;14.09;89.71;101721.81;5058718;28;20063;-53
2023/02/01 04:58:33;;;;;;;28.45;3.63;;;;;;;14.73;87.54;101724.41;5061419;28;20037;-52
2023/02/01 05:00:58;;;;;;;24.13;3.63;;;;;;;14.05;89.42;101721.34;5057449;28;20100;-49
2023/02/01 05:03:24;;;;;;;21.53;4.30;;;;;;;14.43;88.61;101717.41;5064220;28;20269;-50
2023/02/01 05:05:49;;;;;;;27.83;4.27;;;;;;;14.63;86.89;101705.91;5056227;28;20037;-50
2023/02/01 05:08:15;;;;;;;28.70;4.03;;;;;;;14.07;89.44;101706.88;5060761;28;20266;-52
2023/02/01 05:10:41;;;;;;;24.77;4.38;;;;;;;14.14;89.94;101703.22;5058875;28;20041;-49
2023/02/01 05:15:54;;;;;;;;;;;;;;;14.21;89.90;101697.88;5059552;28;20033;-52
2023/02/01 05:18:20;;;;;;;27.20;4.00;;;;;;;14.08;90.52;101692.41;5058189;28;20017;-51
2023/02/01 05:20:45;;;;;;;21.13;3.77;;;;;;;13.84;90.29;101686.47;5061365;28;20037;-51
2023/02/01 05:23:11;;;;;;;22.70;4.17;;;;;;;13.45;92.70;101676.03;5058530;28;20072;-47
2023/02/01 05:25:36;;;;;;;25.37;5.37;;;;;;;13.98;90.96;101673.94;5061824;28;20116;-50
2023/02/01 05:28:02;;;;;;;25.88;4.05;;;;;;;13.48;92.28;101686.38;5060749;28;20028;-49
2023/02/01 05:30:29;;;;;;;16.98;3.70;;;;;;;13.39;93.86;101689.41;5059017;28;20087;-50
2023/02/01 05:32:54;;;;;;;20.58;4.00;;;;;;;13.16;94.36;101696.63;5055399;28;20029;-49
2023/02/01 05:35:20;;;;;;;22.00;3.50;;;;;;;13.34;93.90;101698.84;5057815;28;20532;-50
2023/02/01 05:37:46;;;;;;;16.10;3.77;;;;;;;13.33;93.47;101715.19;5058297;28;20059;-51
2023/02/01 05:40:11;;;;;;;32.40;4.67;;;;;;;13.01;94.99;101720.00;5058271;28;20033;-48
2023/02/01 05:42:37;;;;;;;20.50;4.15;;;;;;;13.68;91.44;101709.09;5062861;28;20028;-53
2023/02/01 05:45:05;;;;;;;21.43;3.73;;;;;;;13.52;93.31;101718.28;5058468;28;20033;-49
2023/02/01 05:47:31;;;;;;;15.93;4.10;;;;;;;14.31;89.04;101719.84;5057902;28;20266;-54
2023/02/01 05:49:57;;;;;;;26.33;3.42;;;;;;;13.67;91.46;101712.81;5056961;28;20037;-54
2023/02/01 05:52:22;;;;;;;29.07;3.63;;;;;;;13.50;92.82;101721.13;5057330;28;20033;-51
2023/02/01 05:54:48;;;;;;;19.80;3.43;;;;;;;14.01;90.41;101713.88;5058440;28;20033;-52
2023/02/01 05:57:14;;;;;;;26.80;4.05;;;;;;;13.84;90.84;101716.88;5056539;28;20055;-54
2023/02/01 05:59:45;;;;;;;23.73;5.13;;;;;;;13.50;92.18;101721.13;5059885;28;20036;-54
2023/02/01 06:02:11;;;;;;;32.03;3.35;;;;;;;12.99;94.74;101706.78;5056022;28;20030;-50
2023/02/01 06:04:37;;;;;;;;;;;;;;;13.78;92.70;101717.63;5057416;28;20041;-50
2023/02/01 06:07:03;;;;;;;17.42;3.85;;;;;;;13.20;94.86;101723.94;5059831;28;19912;-50
2023/02/01 06:09:29;;;;;;;21.53;4.20;;;;;;;13.99;90.95;101694.41;5056997;28;20029;-51
2023/02/01 06:11:54;;;;;;;28.27;3.92;;;;;;;13.88;92.24;101696.63;5059510;28;20030;-51
2023/02/01 06:14:20;;;;;;;20.42;3.75;;;;;;;13.91;89.49;101693.53;5057453;28;20034;-51
2023/02/01 06:16:46;;;;;;;11.80;3.40;;;;;;;13.95;91.41;101702.03;5062923;28;20028;-50
2023/02/01 06:19:12;;;;;;;25.20;3.70;;;;;;;13.89;91.78;101706.38;5056690;28;20302;-51
2023/02/01 06:21:38;;;;;;;29.95;5.13;;;;;;;13.72;92.53;101705.81;5057810;28;20063;-51
2023/02/01 06:24:04;;;;;;;21.80;3.60;;;;;;;14.23;90.20;101706.56;5055554;28;20102;-51
2023/02/01 06:26:29;;;;;;;27.42;3.92;;;;;;;13.58;92.73;101726.38;5057039;28;20041;-51
2023/02/01 06:28:56;;;;;;;29.67;3.73;;;;;;;13.72;91.66;101723.81;5057338;28;20097;-51
2023/02/01 06:31:22;;;;;;;20.67;4.32;;;;;;;13.16;94.22;101717.28;5059718;28;20056;-54
2023/02/01 06:33:48;;;;;;;23.77;4.13;;;;;;;13.46;94.81;101728.75;5052566;28;20101;-50
2023/02/01 06:36:20;;;;;;;29.08;3.85;;;;;;;13.69;92.80;101721.50;5057970;28;20060;-52
2023/02/01 06:38:46;;;;;;;28.85;5.18;;;;;;;13.23;94.17;101726.25;5054845;28;20045;-54
2023/02/01 06:41:11;;;;;;;20.93;4.47;;;;;;;13.91;92.57;101719.59;5059523;28;20041;-54
2023/02/01 06:43:37;;;;;;;19.85;3.88;;;;;;;13.70;93.04;101715.09;5054964;28;20033;-53
2023/02/01 06:46:05;;;;;;;26.83;3.83;;;;;;;13.65;93.20;101720.25;5059673;28;20046;-56
2023/02/01 06:48:32;;;;;;;23.40;3.90;;;;;;;13.75;93.79;101721.56;5058158;28;20031;-53
2023/02/01 06:50:57;;;;;;;23.50;4.30;;;;;;;13.67;92.74;101713.63;5062986;28;20037;-55
2023/02/01 06:53:23;;;;;;;21.65;4.13;;;;;;;13.44;95.87;101729.97;5058495;28;20052;-53
2023/02/01 06:56:01;;;;;;;25.98;5.72;;;;;;;13.54;94.92;101729.66;5062908;28;20041;-55
2023/02/01 06:58:31;;;;;;;17.45;3.58;;;;;;;13.80;92.76;101722.84;5060412;28;20026;-55
2023/02/01 07:00:57;;;;;;;28.45;4.95;;;;;;;14.12;92.61;101726.78;5056820;28;20105;-53
2023/02/01 07:03:22;;;;;;;22.35;3.45;;;;;;;14.01;92.40;101732.69;5062566;28;20052;-50
2023/02/01 07:05:48;;;;;;;23.38;4.22;;;;;;;14.15;91.32;101730.91;5062734;28;20037;-51
2023/02/01 07:08:14;;;;;;;19.30;3.47;;;;;;;13.56;93.14;101736.47;5055570;28;20018;-53
2023/02/01 07:10:40;;;;;;;22.50;3.40;;;;;;;13.49;93.83;101738.28;5060192;28;20033;-53
2023/02/01 07:13:05;;;;;;;18.67;3.17;;;;;;;13.40;95.18;101736.75;5058749;28;20289;-48
2023/02/01 07:15:30;;;;;;;26.87;3.83;;;;;;;13.56;95.72;101733.78;5060561;28;20037;-49
2023/02/01 07:17:56;;;;;;;26.50;4.43;;;;;;;14.18;92.04;101739.44;5058910;28;20060;-54
2023/02/01 07:20:23;;;;;;;19.88;4.40;;;;;;;14.38;90.93;101741.41;5057111;28;20251;-51
2023/02/01 07:22:48;;;;;;;31.15;4.45;;;;;;;14.27;91.09;101734.72;5055773;28;20044;-49
2023/02/01 07:25:13;;;;;;;19.40;3.43;;;;;;;14.38;89.89;101729.81;5059322;28;20025;-48
2023/02/01 07:27:39;;;;;;;25.27;3.30;;;;;;;14.41;90.98;101732.09;5057563;28;20033;-54
2023/02/01 07:30:06;;;;;;;17.08;4.00;;;;;;;13.94;92.60;101735.31;5057645;28;20045;-53
2023/02/01 07:32:32;;;;;;;15.40;4.10;;;;;;;14.10;92.70;101734.22;5056385;28;20029;-53
2023/02/01 07:34:58;;;;;;;26.30;5.50;;;;;;;14.05;91.80;101742.88;5063806;28;20053;-50
2023/02/01 07:37:23;;;;;;;22.00;4.60;;;;;;;14.09;91.68;101743.31;5060237;28;20064;-54
2023/02/01 07:39:50;;;;;;;31.52;5.55;;;;;;;14.36;92.01;101731.88;5063523;28;20067;-51
2023/02/01 07:42:16;;;;;;;21.33;4.88;;;;;;;14.67;89.30;101735.97;5060897;28;20092;-52
2023/02/01 07:44:41;;;;;;;28.63;5.13;;;;;;;14.41;90.61;101740.16;5058182;28;20030;-50
2023/02/01 07:47:06;;;;;;;16.93;3.73;;;;;;;13.57;93.13;101756.16;5062138;28;20051;-49
2023/02/01 07:49:32;;;;;;;23.03;4.33;;;;;;;13.47;95.54;101726.91;5055730;28;20104;-49
2023/02/01 07:51:57;;;;;;;31.65;4.25;;;;;;;13.91;93.20;101736.56;5060788;28;20044;-52
2023/02/01 07:54:23;;;;;;;20.03;3.77;;;;;;;13.95;94.33;101737.00;5060350;28;20059;-55
2023/02/01 07:56:48;;;;;;;20.20;4.17;;;;;;;13.98;94.06;101735.78;5057815;28;20270;-53
2023/02/01 07:59:14;;;;;;;30.63;4.47;;;;;;;13.17;97.22;101735.06;5056561;28;20038;-53
2023/02/01 08:01:40;;;;;;;26.98;4.53;;;;;;;13.31;98.20;101739.53;5056027;28;20025;-53
2023/02/01 08:04:05;;;;;;;21.83;4.30;;;;;;;13.97;94.18;101740.34;5058372;28;20051;-55
2023/02/01 08:06:36;;;;;;;18.70;4.27;;;;;;;13.98;93.04;101746.53;5056867;28;20041;-50
2023/02/01 08:09:03;;;;;;;23.40;3.95;;;;;;;13.70;94.09;101755.44;5057800;28;20030;-50
2023/02/01 08:11:29;;;;;;;23.02;4.07;;;;;;;13.92;94.29;101756.22;5056440;28;20042;-53
2023/02/01 08:13:54;;;;;;;25.92;4.32;;;;;;;14.07;94.45;101755.28;5055837;28;20029;-49
2023/02/01 08:16:21;;;;;;;36.30;4.60;;;;;;;13.51;96.91;101773.84;5057453;28;20037;-54
2023/02/01 08:18:46;;;;;;;23.70;5.47;;;;;;;13.96;95.67;101768.25;5057845;28;20051;-52
2023/02/01 08:21:18;;;;;;;31.30;5.03;;;;;;;13.98;94.44;101755.44;5056705;28;20037;-50
2023/02/01 08:23:44;;;;;;;23.33;4.20;;;;;;;13.64;96.25;101754.34;5057690;28;20055;-56
2023/02/01 08:26:10;;;;;;;32.85;4.78;;;;;;;13.73;95.85;101766.63;5059599;28;20041;-50
2023/02/01 08:28:38;;;;;;;21.98;3.85;;;;;;;14.20;93.40;101755.41;5057437;28;20030;-51
2023/02/01 08:31:08;;;;;;;24.83;3.80;;;;;;;14.23;93.76;101754.16;5060482;28;20068;-51
2023/02/01 08:33:35;;;;;;;24.90;4.78;;;;;;;14.18;92.93;101757.41;5055242;28;20029;-53
2023/02/01 08:36:06;;;;;;;22.77;4.22;;;;;;;14.26;94.38;101742.97;5054601;28;20060;-52
2023/02/01 08:38:32;;;;;;;25.10;4.88;;;;;;;14.16;94.73;101744.19;5054417;28;20044;-52
2023/02/01 08:41:04;;;;;;;28.52;4.28;;;;;;;14.31;92.94;101741.38;5059831;28;20053;-53
2023/02/01 08:43:30;;;;;;;31.80;6.18;;;;;;;13.90;96.47;101750.19;5055484;28;20100;-48
2023/02/01 08:45:55;;;;;;;19.87;4.40;;;;;;;14.25;95.31;101736.78;5056081;28;20041;-53
2023/02/01 08:48:21;;;;;;;26.20;5.75;;;;;;;14.32;95.16;101745.72;5055925;28;20037;-51
2023/02/01 08:50:47;;;;;;;23.53;5.37;;;;;;;14.41;93.43;101745.56;5058893;28;20091;-53
2023/02/01 08:53:13;;;;;;;29.77;4.97;;;;;;;14.66;91.23;101748.59;5057822;28;20277;-49
2023/02/01 08:55:39;;;;;;;17.70;4.50;;;;;;;15.06;91.30;101742.53;5056791;28;20085;-53
2023/02/01 08:58:05;;;;;;;22.40;5.20;;;;;;;14.58;92.14;101746.06;5060516;28;20104;-53
2023/02/01 09:00:30;;;;;;;27.43;6.10;;;;;;;14.89;92.65;101734.00;5054165;28;20030;-49
2023/02/01 09:02:55;;;;;;;19.83;5.37;;;;;;;14.72;93.73;101734.34;5053423;28;20033;-49
2023/02/01 09:05:22;;;;;;;24.80;4.83;;;;;;;14.55;93.87;101735.72;5058593;28;20053;-52
2023/02/01 09:07:48;;;;;;;26.08;5.65;;;;;;;15.24;90.63;101747.34;5057329;28;20025;-53
2023/02/01 09:10:13;;;;;;;42.97;7.50;;;;;;;16.51;84.38;101747.50;5058326;28;20033;-53
2023/02/01 09:12:39;;;;;;;25.02;5.63;;;;;;;17.12;82.42;101739.97;5054060;28;20037;-54
2023/02/01 09:15:06;;;;;;;24.17;6.17;;;;;;;17.44;80.13;101746.19;5056430;28;20093;-52
2023/02/01 09:17:32;;;;;;;28.77;6.40;;;;;;;16.96;79.85;101742.09;5063261;28;20037;-53
2023/02/01 09:19:58;;;;;;;22.73;4.95;;;;;;;16.80;81.39;101745.28;5059180;28;20282;-51
2023/02/01 09:22:24;;;;;;;27.07;5.30;;;;;;;16.60;80.42;101736.25;5057152;28;20053;-50
2023/02/01 09:24:49;;;;;;;28.35;5.05;;;;;;;17.14;80.23;101741.41;5059522;28;20034;-52
2023/02/01 09:27:15;;;;;;;43.23;6.40;;;;;;;17.48;76.84;101746.56;5056218;28;20059;-51
2023/02/01 09:29:40;;;;;;;28.30;6.60;;;;;;;17.28;78.28;101730.50;5054413;28;20060;-54
2023/02/01 09:32:06;;;;;;;22.07;6.43;;;;;;;15.84;82.69;101727.66;5059152;28;20038;-51
2023/02/01 09:34:33;;;;;;;30.45;5.45;;;;;;;16.49;81.47;101721.53;5056946;28;20053;-52
2023/02/01 09:36:58;;;;;;;25.17;4.50;;;;;;;16.11;81.70;101721.44;5054758;28;20034;-55
2023/02/01 09:39:24;;;;;;;22.85;4.78;;;;;;;15.98;82.65;101722.31;5055202;28;20318;-51
2023/02/01 09:42:07;;;;;;;34.45;6.70;;;;;;;16.85;80.55;101737.38;5055985;28;20044;-50
2023/02/01 09:44:41;;;;;;;24.33;5.20;;;;;;;17.27;79.31;101726.16;5053297;28;20037;-51
2023/02/01 09:47:26;;;;;;;27.37;4.90;;;;;;;17.44;78.20;101724.56;5053701;28;20274;-54
2023/02/01 09:49:57;;;;;;;33.90;5.57;;;;;;;16.22;79.75;101722.66;5051173;28;20266;-52
2023/02/01 09:52:30;;;;;;;26.70;6.17;;;;;;;16.72;78.61;101743.66;5057951;28;20273;-51
2023/02/01 09:55:03;;;;;;;31.73;7.13;;;;;;;16.56;81.36;101728.78;5054395;28;20285;-55
2023/02/01 09:57:57;;;;;;;20.97;5.07;;;;;;;17.00;79.26;101743.34;5057722;28;20285;-55
2023/02/01 10:00:33;;;;;;;23.70;5.23;;;;;;;15.95;82.06;101749.69;5064106;28;20277;-51
2023/02/01 10:02:59;;;;;;;22.73;3.75;;;;;;;15.58;84.35;101737.44;5056332;28;20272;-53
2023/02/01 10:05:54;;;;;;;23.60;5.03;;;;;;;16.24;82.57;101753.78;5054949;28;20033;-55
2023/02/01 10:08:39;;;;;;;29.97;5.37;;;;;;;15.27;86.16;101765.81;5055018;28;20036;-52
2023/02/01 10:11:28;;;;;;;25.73;5.33;;;;;;;15.30;87.71;101741.16;5054386;28;20353;-52
2023/02/01 10:14:15;;;;;;;28.37;5.80;;;;;;;15.30;87.89;101743.84;5060522;28;20312;-55
2023/02/01 10:16:51;;;;;;;17.88;4.13;;;;;;;15.39;86.29;101732.84;5054154;28;20312;-52
2023/02/01 10:19:34;;;;;;;36.33;5.43;;;;;;;14.83;87.74;101737.50;5056262;28;20045;-55
2023/02/01 10:22:09;;;;;;;35.77;6.13;;;;;;;15.09;86.55;101781.72;5059601;28;20305;-56
2023/02/01 10:24:57;;;;;;;20.83;4.53;;;;;;;14.89;87.74;101736.69;5059685;28;20296;-54
2023/02/01 10:27:39;;;;;;;25.45;5.07;;;;;;;14.94;86.67;101731.50;5059630;28;20040;-54
2023/02/01 10:30:17;;;;;;;25.30;4.90;;;;;;;14.13;93.41;101717.69;5056703;28;20030;-55
2023/02/01 10:32:42;;;;;;;29.30;5.87;;;;;;;15.63;88.47;101721.44;5061435;28;20283;-55
2023/02/01 10:35:15;;;;;;;23.37;5.90;;;;;;;15.56;88.62;101734.13;5058790;28;20279;-51
2023/02/01 10:37:42;;;;;;;27.43;4.97;;;;;;;14.71;95.33;101730.00;5064630;28;20033;-52
2023/02/01 10:40:21;;;;;;;23.63;5.63;;;;;;;14.67;97.65;101735.97;5060512;28;20301;-56
2023/02/01 10:42:48;;;;;;;27.53;6.30;;;;;;;14.85;97.38;101719.28;5058738;28;20279;-56
2023/02/01 10:45:19;;;;;;;32.30;5.47;;;;;;;14.96;97.32;101715.97;5060320;28;20275;-52
2023/02/01 10:47:44;;;;;;;34.10;5.10;;;;;;;14.76;98.35;101719.47;5061326;28;20025;-53
2023/02/01 10:50:17;;;;;;;31.77;5.45;;;;;;;14.76;96.50;101738.31;5059545;28;20267;-53
2023/02/01 10:52:57;;;;;;;28.80;7.20;;;;;;;14.91;95.96;101721.16;5061194;28;20063;-50
2023/02/01 10:55:37;;;;;;;26.95;5.38;;;;;;;14.36;98.91;101703.13;5057316;28;20093;-52
2023/02/01 10:58:06;;;;;;;29.20;4.43;;;;;;;14.60;97.67;101706.31;5060965;28;20268;-55
2023/02/01 11:00:45;;;;;;;24.50;6.45;;;;;;;15.37;95.45;101694.50;5059839;28;20078;-51
2023/02/01 11:03:31;;;;;;;33.55;6.85;;;;;;;14.95;94.50;101700.84;5056958;28;20044;-56
2023/02/01 11:05:57;;;;;;;29.13;6.15;;;;;;;15.62;91.90;101706.31;5060048;28;20025;-56
2023/02/01 11:08:23;;;;;;;25.45;4.95;;;;;;;15.07;93.20;101694.88;5056762;28;20044;-54
2023/02/01 11:10:57;;;;;;;18.08;5.40;;;;;;;15.09;92.48;101688.25;5061421;28;20040;-52
2023/02/01 11:13:29;;;;;;;25.95;6.03;;;;;;;14.63;92.23;101697.84;5058601;28;20025;-50
2023/02/01 11:15:56;;;;;;;23.40;4.57;;;;;;;14.84;93.73;101666.47;5055401;28;20033;-52
2023/02/01 11:18:28;;;;;;;28.52;6.03;;;;;;;14.99;91.89;101699.44;5057413;28;20037;-53
2023/02/01 11:20:55;;;;;;;24.75;4.88;;;;;;;15.11;91.66;101698.81;5054262;28;20045;-52
2023/02/01 11:23:26;;;;;;;22.13;5.27;;;;;;;15.03;93.02;101695.31;5062635;28;20078;-53
2023/02/01 11:26:12;;;;;;;22.37;4.17;;;;;;;14.68;92.85;101673.81;5056923;28;20365;-52
2023/02/01 11:28:40;;;;;;;23.13;5.53;;;;;;;14.95;92.37;101687.38;5058802;28;20269;-51
2023/02/01 11:31:12;;;;;;;21.27;4.67;;;;;;;15.12;92.22;101689.72;5061217;28;20270;-55
2023/02/01 11:33:43;;;;;;;26.13;5.43;;;;;;;15.41;91.10;101671.47;5050643;28;20271;-53
2023/02/01 11:36:15;;;;;;;30.37;4.73;;;;;;;14.20;95.44;101688.94;5054633;28;20305;-49
2023/02/01 11:39:08;;;;;;;29.37;4.80;;;;;;;14.66;96.90;101685.84;5060207;28;20278;-53
2023/02/01 11:41:35;;;;;;;31.87;6.23;;;;;;;14.08;100.00;101678.94;5058879;28;20267;-51
2023/02/01 11:44:15;;;;;;;34.00;6.70;;;;;;;14.17;100.00;101681.28;5055462;28;20270;-52
2023/02/01 11:46:41;;;;;;;34.20;6.35;;;;;;;14.97;100.00;101668.34;5062185;28;20272;-52